Airports Italy Genoa Cristoforo Colombo Airport

Genoa Cristoforo Colombo Airport (LIMJ / GOA)

Facts about Genoa Cristoforo Colombo Airport

Name Genoa Cristoforo Colombo Airport
City Genoa
Country Italy
ICAO code LIMJ
IATA code GOA
Elevation 3.9624 meters (13 feet)

Weather

METAR

Metar data retrieved Saturday, 20 July 2024 at 00:25 UTC (23 minutes ago)

LIMJ 192350Z 04007G24KT 340V080 9999 FEW035CB SCT080 27/20 Q1012

Live traffic

Navigraph Charts (account required)